createdAt,value
2023-01-31T00:00:17.445Z,7.11
2023-01-31T00:03:05.388Z,8.83
2023-01-31T00:05:33.584Z,9.64
2023-01-31T00:08:01.792Z,8.76
2023-01-31T00:10:29.968Z,7.99
2023-01-31T00:12:58.497Z,7.46
2023-01-31T00:15:26.465Z,7.07
2023-01-31T00:17:55.679Z,7.06
2023-01-31T00:20:23.578Z,8.81
2023-01-31T00:22:51.555Z,9.03
2023-01-31T00:25:20.638Z,8.13
2023-01-31T00:27:48.767Z,7.49
2023-01-31T00:30:17.094Z,7.03
2023-01-31T00:32:45.217Z,6.79
2023-01-31T00:35:13.293Z,8.18
2023-01-31T00:37:41.438Z,8.85
2023-01-31T00:40:10.576Z,8.05
2023-01-31T00:42:38.893Z,7.42
2023-01-31T00:45:07.685Z,6.97
2023-01-31T00:47:36.387Z,6.64
2023-01-31T00:50:05.769Z,7.36
2023-01-31T00:52:34.716Z,9.11
2023-01-31T00:55:04.696Z,8.65
2023-01-31T00:57:32.954Z,7.80
2023-01-31T01:00:01.027Z,7.22
2023-01-31T01:02:29.208Z,6.82
2023-01-31T01:04:57.271Z,6.61
2023-01-31T01:07:25.473Z,8.08
2023-01-31T01:09:54.564Z,8.96
2023-01-31T01:12:22.725Z,8.16
2023-01-31T01:14:50.695Z,7.45
2023-01-31T01:17:18.717Z,6.96
2023-01-31T01:19:46.836Z,6.62
2023-01-31T01:22:17.809Z,6.34
2023-01-31T01:24:48.537Z,6.80
2023-01-31T01:27:16.739Z,8.68
2023-01-31T01:29:44.851Z,8.42
2023-01-31T01:32:13.043Z,7.60
2023-01-31T01:34:42.511Z,7.01
2023-01-31T01:37:20.227Z,6.60
2023-01-31T01:39:52.530Z,6.29
2023-01-31T01:42:23.635Z,6.05
2023-01-31T01:44:55.442Z,5.88
2023-01-31T01:47:54.539Z,7.32
2023-01-31T01:50:37.055Z,8.66
2023-01-31T01:53:23.723Z,7.70
2023-01-31T01:55:56.253Z,6.96
2023-01-31T01:58:29.038Z,6.49
2023-01-31T02:00:57.029Z,6.18
2023-01-31T02:03:26.100Z,5.95
2023-01-31T02:06:02.226Z,5.74
2023-01-31T02:08:37.546Z,6.52
2023-01-31T02:11:24.091Z,8.32
2023-01-31T02:13:58.723Z,7.72
2023-01-31T02:16:26.928Z,6.97
2023-01-31T02:18:55.555Z,6.48
2023-01-31T02:21:50.919Z,6.14
2023-01-31T02:24:37.134Z,5.84
2023-01-31T02:27:24.300Z,5.62
2023-01-31T02:30:25.185Z,5.43
2023-01-31T02:33:17.636Z,6.13
2023-01-31T02:36:03.757Z,7.93
2023-01-31T02:39:11.429Z,7.27
2023-01-31T02:42:10.774Z,6.49
2023-01-31T02:45:00.818Z,6.02
2023-01-31T02:48:08.089Z,5.73
2023-01-31T02:50:42.000Z,5.48
2023-01-31T02:53:16.569Z,5.93
2023-01-31T02:56:17.501Z,7.96
2023-01-31T02:59:11.283Z,7.61
2023-01-31T03:01:43.996Z,6.77
2023-01-31T03:04:13.355Z,6.30
2023-01-31T03:06:41.215Z,5.99
2023-01-31T03:09:40.727Z,5.74
2023-01-31T03:12:43.003Z,5.52
2023-01-31T03:15:18.029Z,5.76
2023-01-31T03:18:13.851Z,7.64
2023-01-31T03:20:57.721Z,7.38
2023-01-31T03:23:29.896Z,6.64
2023-01-31T03:26:04.214Z,6.18
2023-01-31T03:28:37.215Z,5.86
2023-01-31T03:31:21.230Z,5.61
2023-01-31T03:33:58.287Z,5.59
2023-01-31T03:36:32.655Z,7.42
2023-01-31T03:39:15.544Z,8.11
2023-01-31T03:41:49.039Z,7.21
2023-01-31T03:45:00.368Z,6.58
2023-01-31T03:47:46.913Z,6.09
2023-01-31T03:50:30.202Z,5.79
2023-01-31T03:53:11.757Z,5.56
2023-01-31T03:55:49.232Z,5.36
2023-01-31T03:58:23.252Z,6.28
2023-01-31T04:00:52.767Z,8.04
2023-01-31T04:03:28.828Z,7.52
2023-01-31T04:05:57.432Z,6.78
2023-01-31T04:08:25.704Z,6.28
2023-01-31T04:10:58.376Z,5.95
2023-01-31T04:13:26.522Z,5.69
2023-01-31T04:15:54.552Z,5.49
2023-01-31T04:18:22.857Z,5.32
2023-01-31T04:20:50.767Z,5.16
2023-01-31T04:23:19.021Z,5.02
2023-01-31T04:25:47.295Z,5.21
2023-01-31T04:28:15.362Z,7.17
2023-01-31T04:30:43.225Z,7.55
2023-01-31T04:33:11.109Z,6.77
2023-01-31T04:35:41.998Z,6.20
2023-01-31T04:38:10.096Z,5.81
2023-01-31T04:40:38.183Z,5.54
2023-01-31T04:43:06.343Z,5.33
2023-01-31T04:45:34.329Z,5.17
2023-01-31T04:48:02.310Z,5.03
2023-01-31T04:50:30.585Z,5.75
2023-01-31T04:52:58.529Z,7.58
2023-01-31T04:55:27.624Z,7.21
2023-01-31T04:57:55.524Z,6.52
2023-01-31T05:00:23.454Z,6.03
2023-01-31T05:02:52.134Z,5.70
2023-01-31T05:05:21.465Z,5.45
2023-01-31T05:07:49.525Z,5.61
2023-01-31T05:10:18.296Z,7.61
2023-01-31T05:12:47.343Z,8.23
2023-01-31T05:15:15.974Z,7.32
2023-01-31T05:17:43.889Z,6.63
2023-01-31T05:20:12.576Z,6.16
2023-01-31T05:22:40.864Z,5.83
2023-01-31T05:25:09.439Z,5.57
2023-01-31T05:27:40.783Z,6.24
2023-01-31T05:30:15.517Z,7.91
2023-01-31T05:32:46.094Z,7.40
2023-01-31T05:35:14.200Z,6.65
2023-01-31T05:37:46.199Z,6.14
2023-01-31T05:40:17.124Z,5.77
2023-01-31T05:42:45.222Z,6.03
2023-01-31T05:45:13.563Z,8.05
2023-01-31T05:47:41.535Z,8.64
2023-01-31T05:50:10.307Z,7.68
2023-01-31T05:52:38.322Z,6.89
2023-01-31T05:55:06.833Z,6.35
2023-01-31T05:57:34.848Z,5.97
2023-01-31T06:00:04.011Z,5.85
2023-01-31T06:02:33.498Z,7.46
2023-01-31T06:05:05.518Z,8.76
2023-01-31T06:07:34.582Z,7.88
2023-01-31T06:10:03.207Z,7.04
2023-01-31T06:12:32.013Z,6.46
2023-01-31T06:15:00.749Z,6.05
2023-01-31T06:17:30.479Z,5.74
2023-01-31T06:19:59.110Z,6.04
2023-01-31T06:22:27.126Z,7.87
2023-01-31T06:24:55.072Z,7.71
2023-01-31T06:27:22.966Z,6.90
2023-01-31T06:29:50.998Z,6.31
2023-01-31T06:32:18.988Z,5.90
2023-01-31T06:34:47.011Z,5.67
2023-01-31T06:37:14.984Z,7.06
2023-01-31T06:39:42.997Z,8.41
2023-01-31T06:42:10.956Z,7.67
2023-01-31T06:44:39.703Z,6.87
2023-01-31T06:47:07.728Z,6.33
2023-01-31T06:49:35.755Z,5.94
2023-01-31T06:52:03.776Z,5.64
2023-01-31T06:54:31.759Z,5.76
2023-01-31T06:56:59.801Z,7.65
2023-01-31T06:59:27.865Z,8.15
2023-01-31T07:01:55.938Z,7.27
2023-01-31T07:04:26.634Z,6.57
2023-01-31T07:06:55.055Z,6.09
2023-01-31T07:09:23.575Z,5.75
2023-01-31T07:11:51.514Z,5.73
2023-01-31T07:14:19.518Z,7.47
2023-01-31T07:16:47.553Z,8.07
2023-01-31T07:19:15.798Z,7.24
2023-01-31T07:21:44.617Z,6.58
2023-01-31T07:24:12.810Z,6.11
2023-01-31T07:26:40.871Z,5.76
2023-01-31T07:29:09.125Z,5.66
2023-01-31T07:31:37.184Z,7.24
2023-01-31T07:34:05.143Z,7.90
2023-01-31T07:36:33.387Z,7.10
2023-01-31T07:39:01.994Z,6.48
2023-01-31T07:41:30.125Z,6.06
2023-01-31T07:43:58.761Z,5.76
2023-01-31T07:46:26.659Z,5.54
2023-01-31T07:48:54.553Z,6.39
2023-01-31T07:51:22.359Z,8.26
2023-01-31T07:53:50.252Z,7.93
2023-01-31T07:56:21.170Z,7.12
2023-01-31T07:58:50.605Z,6.58
2023-01-31T08:01:38.902Z,6.23
2023-01-31T08:04:20.469Z,5.95
2023-01-31T08:06:54.460Z,5.86
2023-01-31T08:09:23.593Z,7.52
2023-01-31T08:11:52.149Z,8.31
2023-01-31T08:14:25.420Z,7.54
2023-01-31T08:16:53.851Z,6.88
2023-01-31T08:19:22.817Z,6.46
2023-01-31T08:21:53.545Z,6.15
2023-01-31T08:24:22.004Z,5.92
2023-01-31T08:26:53.122Z,6.08
2023-01-31T08:29:22.261Z,8.04
2023-01-31T08:31:52.335Z,8.35
2023-01-31T08:34:22.198Z,7.49
2023-01-31T08:36:50.344Z,6.87
2023-01-31T08:39:18.431Z,6.44
2023-01-31T08:41:54.865Z,6.11
2023-01-31T08:44:25.700Z,5.98
2023-01-31T08:46:53.992Z,7.58
2023-01-31T08:49:22.129Z,8.05
2023-01-31T08:51:50.055Z,7.28
2023-01-31T08:54:18.738Z,6.70
2023-01-31T08:56:46.667Z,6.31
2023-01-31T08:59:14.791Z,6.07
2023-01-31T09:01:45.590Z,7.04
2023-01-31T09:04:13.703Z,8.52
2023-01-31T09:06:41.671Z,7.90
2023-01-31T09:09:10.551Z,7.19
2023-01-31T09:11:39.711Z,6.74
2023-01-31T09:14:07.759Z,6.49
2023-01-31T09:16:35.724Z,6.40
2023-01-31T09:19:04.204Z,6.35
2023-01-31T09:21:32.554Z,6.32
2023-01-31T09:24:04.468Z,6.27
2023-01-31T09:26:33.134Z,6.20
2023-01-31T09:29:01.884Z,6.21
2023-01-31T09:31:30.512Z,6.34
2023-01-31T09:33:59.295Z,6.51
2023-01-31T09:36:28.629Z,6.62
2023-01-31T09:38:57.395Z,6.63
2023-01-31T09:41:33.563Z,6.59
2023-01-31T09:44:10.288Z,6.54
2023-01-31T09:46:46.736Z,7.67
2023-01-31T09:49:24.278Z,9.28
2023-01-31T09:51:57.511Z,8.65
2023-01-31T09:54:38.283Z,7.93
2023-01-31T09:57:12.576Z,7.43
2023-01-31T09:59:55.668Z,7.11
2023-01-31T10:02:42.257Z,6.85
2023-01-31T10:05:33.703Z,6.64
2023-01-31T10:08:37.492Z,6.82
2023-01-31T10:11:13.269Z,9.28
2023-01-31T10:13:52.295Z,9.69
2023-01-31T10:16:45.971Z,8.72
2023-01-31T10:19:29.396Z,7.93
2023-01-31T10:22:11.662Z,7.53
2023-01-31T10:25:07.726Z,7.31
2023-01-31T10:27:45.448Z,7.13
2023-01-31T10:30:26.999Z,7.02
2023-01-31T10:33:22.188Z,6.91
2023-01-31T10:35:52.633Z,6.83
2023-01-31T10:38:32.246Z,6.77
2023-01-31T10:41:12.394Z,7.92
2023-01-31T10:43:48.858Z,9.87
2023-01-31T10:46:16.958Z,9.43
2023-01-31T10:48:47.468Z,8.78
2023-01-31T10:51:48.735Z,8.33
2023-01-31T10:54:26.339Z,7.95
2023-01-31T10:56:54.323Z,7.69
2023-01-31T10:59:41.439Z,7.49
2023-01-31T11:02:39.174Z,7.28
2023-01-31T11:05:07.546Z,7.07
2023-01-31T11:07:35.854Z,6.89
2023-01-31T11:10:29.243Z,7.50
2023-01-31T11:13:04.750Z,9.51
2023-01-31T11:15:39.809Z,8.96
2023-01-31T11:18:24.020Z,8.22
2023-01-31T11:20:52.193Z,7.69
2023-01-31T11:23:26.073Z,7.36
2023-01-31T11:25:55.171Z,7.21
2023-01-31T11:28:26.896Z,8.73
2023-01-31T11:30:55.783Z,9.63
2023-01-31T11:34:00.012Z,8.87
2023-01-31T11:36:42.243Z,8.06
2023-01-31T11:39:35.369Z,7.61
2023-01-31T11:42:15.791Z,7.27
2023-01-31T11:45:01.959Z,7.72
2023-01-31T11:47:53.340Z,9.65
2023-01-31T11:50:23.082Z,9.10
2023-01-31T11:52:58.558Z,8.35
2023-01-31T11:55:27.465Z,7.82
2023-01-31T11:57:59.139Z,7.51
2023-01-31T12:00:32.708Z,8.75
2023-01-31T12:03:15.149Z,10.27
2023-01-31T12:05:46.058Z,9.44
2023-01-31T12:08:43.481Z,8.59
2023-01-31T12:11:20.533Z,8.44
2023-01-31T12:13:51.515Z,10.31
2023-01-31T12:16:27.714Z,10.29
2023-01-31T12:19:13.863Z,9.30
2023-01-31T12:22:14.012Z,8.52
2023-01-31T12:25:16.024Z,9.05
2023-01-31T12:27:50.227Z,11.13
2023-01-31T12:30:45.328Z,10.53
2023-01-31T12:33:16.949Z,9.39
2023-01-31T12:36:09.501Z,9.11
2023-01-31T12:38:56.087Z,11.01
2023-01-31T12:41:34.207Z,10.93
2023-01-31T12:44:32.944Z,9.78
2023-01-31T12:47:31.833Z,9.67
2023-01-31T12:50:25.079Z,11.49
2023-01-31T12:53:40.809Z,10.68
2023-01-31T12:56:47.466Z,9.55
2023-01-31T13:00:11.039Z,11.13
2023-01-31T13:02:47.510Z,11.27
2023-01-31T13:05:45.144Z,10.07
2023-01-31T13:08:23.757Z,9.99
2023-01-31T13:11:04.319Z,11.80
2023-01-31T13:13:41.113Z,11.49
2023-01-31T13:16:38.695Z,10.24
2023-01-31T13:19:15.403Z,10.11
2023-01-31T13:21:47.468Z,11.69
2023-01-31T13:24:23.199Z,11.09
2023-01-31T13:26:58.433Z,9.95
2023-01-31T13:29:39.272Z,10.19
2023-01-31T13:32:21.752Z,12.03
2023-01-31T13:35:16.892Z,11.73
2023-01-31T13:37:46.650Z,10.36
2023-01-31T13:40:28.955Z,9.60
2023-01-31T13:43:02.849Z,10.81
2023-01-31T13:45:36.045Z,11.72
2023-01-31T13:48:10.867Z,10.60
2023-01-31T13:51:16.247Z,9.62
2023-01-31T13:53:50.742Z,10.52
2023-01-31T13:56:32.737Z,11.83
2023-01-31T13:59:02.031Z,10.87
2023-01-31T14:01:35.354Z,9.81
2023-01-31T14:04:13.757Z,9.60
2023-01-31T14:06:54.527Z,11.33
2023-01-31T14:09:35.516Z,11.45
2023-01-31T14:12:19.164Z,10.16
2023-01-31T14:14:54.231Z,9.72
2023-01-31T14:17:22.359Z,11.26
2023-01-31T14:19:50.527Z,11.91
2023-01-31T14:22:36.532Z,10.80
2023-01-31T14:25:10.591Z,9.68
2023-01-31T14:28:00.079Z,9.96
2023-01-31T14:30:39.573Z,11.77
2023-01-31T14:33:13.570Z,11.44
2023-01-31T14:35:59.576Z,10.21
2023-01-31T14:38:52.333Z,9.90
2023-01-31T14:41:52.361Z,11.69
2023-01-31T14:44:34.156Z,11.39
2023-01-31T14:47:25.924Z,10.11
2023-01-31T14:50:37.344Z,9.87
2023-01-31T14:53:17.296Z,11.71
2023-01-31T14:56:42.121Z,11.13
2023-01-31T14:59:35.649Z,9.71
2023-01-31T15:02:21.275Z,10.74
2023-01-31T15:05:25.158Z,11.91
2023-01-31T15:08:09.624Z,10.58
2023-01-31T15:11:14.989Z,9.60
2023-01-31T15:13:58.538Z,10.96
2023-01-31T15:16:40.617Z,11.78
2023-01-31T15:19:20.482Z,10.53
2023-01-31T15:21:59.285Z,9.46
2023-01-31T15:24:39.315Z,10.20
2023-01-31T15:27:19.713Z,11.65
2023-01-31T15:29:59.653Z,10.81
2023-01-31T15:32:53.591Z,9.63
2023-01-31T15:35:35.486Z,10.25
2023-01-31T15:38:20.280Z,11.76
2023-01-31T15:40:48.407Z,11.00
2023-01-31T15:43:24.843Z,9.85
2023-01-31T15:45:52.929Z,9.66
2023-01-31T15:48:22.588Z,11.14
2023-01-31T15:50:52.261Z,11.42
2023-01-31T15:53:25.117Z,10.24
2023-01-31T15:55:58.425Z,9.63
2023-01-31T15:58:29.089Z,10.95
2023-01-31T16:01:00.434Z,11.56
2023-01-31T16:03:32.382Z,10.41
2023-01-31T16:06:00.665Z,9.55
2023-01-31T16:08:29.395Z,10.61
2023-01-31T16:10:58.158Z,11.64
2023-01-31T16:13:29.680Z,10.64
2023-01-31T16:15:57.972Z,10.01
2023-01-31T16:18:25.974Z,11.35
2023-01-31T16:20:56.136Z,12.17
2023-01-31T16:23:25.792Z,11.00
2023-01-31T16:26:23.767Z,9.89
2023-01-31T16:28:54.928Z,10.19
2023-01-31T16:31:24.911Z,11.78
2023-01-31T16:33:58.152Z,11.23
2023-01-31T16:36:53.015Z,10.04
2023-01-31T16:39:42.726Z,9.74
2023-01-31T16:42:18.301Z,11.51
2023-01-31T16:44:49.164Z,11.07
2023-01-31T16:47:51.817Z,9.91
2023-01-31T16:50:24.680Z,10.00
2023-01-31T16:53:18.258Z,11.66
2023-01-31T16:55:46.561Z,11.19
2023-01-31T16:58:56.904Z,9.95
2023-01-31T17:01:34.705Z,9.99
2023-01-31T17:04:12.043Z,11.65
2023-01-31T17:06:41.302Z,11.15
2023-01-31T17:09:14.747Z,9.89
2023-01-31T17:11:43.911Z,9.90
2023-01-31T17:14:14.471Z,11.45
2023-01-31T17:16:42.796Z,11.16
2023-01-31T17:19:11.644Z,9.92
2023-01-31T17:21:41.840Z,9.76
2023-01-31T17:24:18.611Z,11.36
2023-01-31T17:26:46.603Z,11.58
2023-01-31T17:29:16.972Z,10.27
2023-01-31T17:31:45.007Z,10.05
2023-01-31T17:34:14.871Z,11.58
2023-01-31T17:36:44.325Z,11.89
2023-01-31T17:39:12.971Z,10.57
2023-01-31T17:41:41.559Z,9.96
2023-01-31T17:44:14.595Z,11.35
2023-01-31T17:46:45.693Z,11.76
2023-01-31T17:49:13.831Z,10.47
2023-01-31T17:51:41.920Z,10.08
2023-01-31T17:54:10.925Z,11.54
2023-01-31T17:56:39.692Z,11.57
2023-01-31T17:59:12.306Z,10.32
2023-01-31T18:01:43.308Z,10.58
2023-01-31T18:04:11.440Z,12.12
2023-01-31T18:06:39.655Z,12.00
2023-01-31T18:09:10.231Z,10.67
2023-01-31T18:11:39.013Z,10.63
2023-01-31T18:17:47.194Z,11.21
2023-01-31T18:20:13.935Z,10.32
2023-01-31T18:22:40.707Z,11.51
2023-01-31T18:25:07.799Z,12.16
2023-01-31T18:27:34.634Z,10.98
2023-01-31T18:30:01.535Z,10.40
2023-01-31T18:32:29.112Z,11.81
2023-01-31T18:34:56.351Z,12.01
2023-01-31T18:37:23.539Z,10.74
2023-01-31T18:39:52.096Z,10.33
2023-01-31T18:42:20.742Z,11.85
2023-01-31T18:44:47.485Z,11.86
2023-01-31T18:47:15.543Z,10.59
2023-01-31T18:49:42.747Z,10.72
2023-01-31T18:52:09.817Z,12.28
2023-01-31T18:54:37.322Z,12.19
2023-01-31T18:57:04.715Z,10.86
2023-01-31T18:59:34.226Z,10.80
2023-01-31T19:02:01.326Z,12.37
2023-01-31T19:04:27.884Z,12.49
2023-01-31T19:06:54.508Z,11.20
2023-01-31T19:09:21.862Z,10.50
2023-01-31T19:11:48.688Z,11.81
2023-01-31T19:14:15.373Z,12.62
2023-01-31T19:16:44.210Z,11.45
2023-01-31T19:19:11.489Z,10.48
2023-01-31T19:21:39.071Z,11.55
2023-01-31T19:24:12.933Z,12.63
2023-01-31T19:26:39.789Z,11.53
2023-01-31T19:29:09.327Z,10.49
2023-01-31T19:31:36.477Z,11.52
2023-01-31T19:34:05.888Z,12.68
2023-01-31T19:36:40.474Z,11.67
2023-01-31T19:39:10.911Z,10.66
2023-01-31T19:41:37.752Z,11.76
2023-01-31T19:44:04.988Z,12.72
2023-01-31T19:46:35.199Z,11.59
2023-01-31T19:49:03.083Z,10.67
2023-01-31T19:51:30.531Z,11.89
2023-01-31T19:54:02.213Z,12.73
2023-01-31T19:56:31.062Z,11.51
2023-01-31T19:58:59.385Z,10.85
2023-01-31T20:01:26.798Z,12.23
2023-01-31T20:03:55.010Z,12.42
2023-01-31T20:06:25.516Z,11.19
2023-01-31T20:08:55.802Z,11.22
2023-01-31T20:11:25.264Z,12.71
2023-01-31T20:13:54.621Z,12.66
2023-01-31T20:16:22.202Z,11.31
2023-01-31T20:18:50.742Z,10.86
2023-01-31T20:21:20.874Z,12.29
2023-01-31T20:23:49.270Z,12.40
2023-01-31T20:26:18.810Z,11.14
2023-01-31T20:28:46.544Z,10.94
2023-01-31T20:31:15.763Z,12.37
2023-01-31T20:33:43.834Z,12.74
2023-01-31T20:36:12.073Z,11.44
2023-01-31T20:38:39.835Z,10.70
2023-01-31T20:41:08.348Z,11.88
2023-01-31T20:43:36.706Z,12.81
2023-01-31T20:46:14.750Z,11.70
2023-01-31T20:48:42.665Z,10.66
2023-01-31T20:51:09.832Z,11.63
2023-01-31T20:53:37.667Z,12.61
2023-01-31T20:56:10.221Z,11.54
2023-01-31T20:58:40.895Z,10.75
2023-01-31T21:01:09.960Z,11.96
2023-01-31T21:03:37.214Z,12.64
2023-01-31T21:06:05.320Z,11.48
2023-01-31T21:08:32.849Z,10.71
2023-01-31T21:11:04.092Z,11.87
2023-01-31T21:13:32.369Z,12.63
2023-01-31T21:16:03.160Z,11.48
2023-01-31T21:18:34.689Z,10.65
2023-01-31T21:21:10.683Z,11.79
2023-01-31T21:23:39.541Z,11.64
2023-01-31T21:26:09.568Z,10.38
2023-01-31T21:28:39.123Z,10.44
2023-01-31T21:31:11.749Z,12.03
2023-01-31T21:33:38.491Z,11.65
2023-01-31T21:36:10.688Z,10.50
2023-01-31T21:38:38.639Z,11.04
2023-01-31T21:41:24.173Z,11.58
2023-01-31T21:43:50.801Z,10.55
2023-01-31T21:46:17.930Z,9.56
2023-01-31T21:48:44.601Z,8.95
2023-01-31T21:51:14.905Z,9.99
2023-01-31T21:53:41.880Z,11.46
2023-01-31T21:56:20.472Z,10.79
2023-01-31T21:58:47.220Z,9.59
2023-01-31T22:01:22.210Z,8.96
2023-01-31T22:03:51.226Z,10.23
2023-01-31T22:06:30.206Z,11.27
2023-01-31T22:09:00.191Z,10.20
2023-01-31T22:11:32.552Z,9.17
2023-01-31T22:14:01.115Z,9.35
2023-01-31T22:16:27.893Z,10.98
2023-01-31T22:18:54.313Z,10.92
2023-01-31T22:21:31.073Z,9.77
2023-01-31T22:23:59.676Z,8.89
2023-01-31T22:26:29.954Z,9.77
2023-01-31T22:29:00.473Z,10.92
2023-01-31T22:31:28.545Z,10.06
2023-01-31T22:33:55.833Z,9.04
2023-01-31T22:36:24.770Z,8.86
2023-01-31T22:38:52.041Z,10.47
2023-01-31T22:41:20.103Z,10.65
2023-01-31T22:43:50.263Z,9.51
2023-01-31T22:46:24.603Z,8.80
2023-01-31T22:48:53.618Z,10.07
2023-01-31T22:51:24.002Z,11.03
2023-01-31T22:53:51.356Z,9.95
2023-01-31T22:56:21.872Z,9.00
2023-01-31T22:58:48.933Z,9.81
2023-01-31T23:01:19.280Z,11.20
2023-01-31T23:03:46.347Z,10.44
2023-01-31T23:06:15.963Z,9.33
2023-01-31T23:08:43.120Z,9.13
2023-01-31T23:11:15.032Z,10.69
2023-01-31T23:13:42.940Z,10.90
2023-01-31T23:16:19.323Z,9.72
2023-01-31T23:18:46.577Z,8.82
2023-01-31T23:21:17.395Z,9.70
2023-01-31T23:23:45.153Z,11.00
2023-01-31T23:26:12.698Z,10.14
2023-01-31T23:28:39.717Z,9.07
2023-01-31T23:31:06.997Z,9.08
2023-01-31T23:33:33.671Z,10.65
2023-01-31T23:36:00.514Z,10.19
2023-01-31T23:38:27.128Z,9.08
2023-01-31T23:40:54.123Z,8.87
2023-01-31T23:43:21.938Z,10.44
2023-01-31T23:45:48.662Z,10.33
2023-01-31T23:48:15.209Z,9.20
2023-01-31T23:50:41.953Z,8.65
2023-01-31T23:53:08.723Z,10.11
2023-01-31T23:55:35.225Z,10.40
2023-01-31T23:58:01.966Z,9.36
